sensor_id;sensor_type;location;lat;lon;timestamp;P1;durP1;ratioP1;P2;durP2;ratioP2
77581;SDS011;66726;52.388;9.986;2023-10-19T00:00:55;16.40;;;12.80;;
77581;SDS011;66726;52.388;9.986;2023-10-19T00:03:23;15.83;;;13.83;;
77581;SDS011;66726;52.388;9.986;2023-10-19T00:05:55;18.60;;;15.07;;
77581;SDS011;66726;52.388;9.986;2023-10-19T00:08:24;15.67;;;14.07;;
77581;SDS011;66726;52.388;9.986;2023-10-19T00:11:02;16.80;;;15.00;;
77581;SDS011;66726;52.388;9.986;2023-10-19T00:13:35;18.70;;;15.30;;
77581;SDS011;66726;52.388;9.986;2023-10-19T00:16:05;17.87;;;15.37;;
77581;SDS011;66726;52.388;9.986;2023-10-19T00:18:38;21.00;;;15.97;;
77581;SDS011;66726;52.388;9.986;2023-10-19T00:21:09;19.37;;;16.50;;
77581;SDS011;66726;52.388;9.986;2023-10-19T00:23:46;17.77;;;15.87;;
77581;SDS011;66726;52.388;9.986;2023-10-19T00:26:15;19.33;;;17.10;;
77581;SDS011;66726;52.388;9.986;2023-10-19T00:28:46;20.63;;;18.20;;
77581;SDS011;66726;52.388;9.986;2023-10-19T00:31:18;18.97;;;16.93;;
77581;SDS011;66726;52.388;9.986;2023-10-19T00:33:46;20.73;;;17.77;;
77581;SDS011;66726;52.388;9.986;2023-10-19T00:36:18;20.47;;;16.97;;
77581;SDS011;66726;52.388;9.986;2023-10-19T00:38:49;21.53;;;17.53;;
77581;SDS011;66726;52.388;9.986;2023-10-19T00:41:22;21.07;;;18.17;;
77581;SDS011;66726;52.388;9.986;2023-10-19T00:43:56;21.10;;;17.83;;
77581;SDS011;66726;52.388;9.986;2023-10-19T00:46:29;20.87;;;18.33;;
77581;SDS011;66726;52.388;9.986;2023-10-19T00:49:01;21.30;;;18.00;;
77581;SDS011;66726;52.388;9.986;2023-10-19T00:51:33;23.47;;;18.93;;
77581;SDS011;66726;52.388;9.986;2023-10-19T00:54:13;20.47;;;18.03;;
77581;SDS011;66726;52.388;9.986;2023-10-19T00:56:52;22.80;;;19.13;;
77581;SDS011;66726;52.388;9.986;2023-10-19T00:59:24;21.97;;;19.23;;
77581;SDS011;66726;52.388;9.986;2023-10-19T01:01:57;24.33;;;19.73;;
77581;SDS011;66726;52.388;9.986;2023-10-19T01:04:43;23.50;;;18.97;;
77581;SDS011;66726;52.388;9.986;2023-10-19T01:07:17;27.03;;;19.97;;
77581;SDS011;66726;52.388;9.986;2023-10-19T01:09:50;25.43;;;19.20;;
77581;SDS011;66726;52.388;9.986;2023-10-19T01:12:23;22.50;;;18.87;;
77581;SDS011;66726;52.388;9.986;2023-10-19T01:15:00;24.20;;;19.73;;
77581;SDS011;66726;52.388;9.986;2023-10-19T01:17:34;28.00;;;20.23;;
77581;SDS011;66726;52.388;9.986;2023-10-19T01:20:07;22.30;;;18.93;;
77581;SDS011;66726;52.388;9.986;2023-10-19T01:22:49;23.20;;;19.20;;
77581;SDS011;66726;52.388;9.986;2023-10-19T01:25:32;21.43;;;19.13;;
77581;SDS011;66726;52.388;9.986;2023-10-19T01:28:12;22.83;;;19.33;;
77581;SDS011;66726;52.388;9.986;2023-10-19T01:30:43;27.80;;;20.50;;
77581;SDS011;66726;52.388;9.986;2023-10-19T01:33:18;25.13;;;19.83;;
77581;SDS011;66726;52.388;9.986;2023-10-19T01:35:47;26.53;;;20.80;;
77581;SDS011;66726;52.388;9.986;2023-10-19T01:38:34;24.80;;;20.33;;
77581;SDS011;66726;52.388;9.986;2023-10-19T01:41:03;27.47;;;20.43;;
77581;SDS011;66726;52.388;9.986;2023-10-19T01:43:39;24.50;;;19.63;;
77581;SDS011;66726;52.388;9.986;2023-10-19T01:46:11;24.03;;;20.43;;
77581;SDS011;66726;52.388;9.986;2023-10-19T01:48:49;29.63;;;20.83;;
77581;SDS011;66726;52.388;9.986;2023-10-19T01:51:21;24.60;;;20.60;;
77581;SDS011;66726;52.388;9.986;2023-10-19T01:53:52;26.10;;;21.10;;
77581;SDS011;66726;52.388;9.986;2023-10-19T01:56:22;25.20;;;21.77;;
77581;SDS011;66726;52.388;9.986;2023-10-19T01:58:50;26.80;;;22.53;;
77581;SDS011;66726;52.388;9.986;2023-10-19T02:01:20;23.83;;;20.17;;
77581;SDS011;66726;52.388;9.986;2023-10-19T02:03:56;24.10;;;20.43;;
77581;SDS011;66726;52.388;9.986;2023-10-19T02:06:28;24.03;;;21.43;;
77581;SDS011;66726;52.388;9.986;2023-10-19T02:09:04;27.10;;;22.27;;
77581;SDS011;66726;52.388;9.986;2023-10-19T02:11:44;30.03;;;22.90;;
77581;SDS011;66726;52.388;9.986;2023-10-19T02:14:14;29.37;;;22.90;;
77581;SDS011;66726;52.388;9.986;2023-10-19T02:16:45;31.40;;;24.10;;
77581;SDS011;66726;52.388;9.986;2023-10-19T02:19:14;28.70;;;22.77;;
77581;SDS011;66726;52.388;9.986;2023-10-19T02:21:42;31.30;;;25.00;;
77581;SDS011;66726;52.388;9.986;2023-10-19T02:24:14;27.73;;;22.37;;
77581;SDS011;66726;52.388;9.986;2023-10-19T02:26:43;25.63;;;22.27;;
77581;SDS011;66726;52.388;9.986;2023-10-19T02:29:13;26.40;;;21.27;;
77581;SDS011;66726;52.388;9.986;2023-10-19T02:31:41;28.50;;;22.30;;
77581;SDS011;66726;52.388;9.986;2023-10-19T02:34:10;26.53;;;21.50;;
77581;SDS011;66726;52.388;9.986;2023-10-19T02:36:41;28.67;;;22.37;;
77581;SDS011;66726;52.388;9.986;2023-10-19T02:39:11;25.97;;;22.00;;
77581;SDS011;66726;52.388;9.986;2023-10-19T02:41:44;27.00;;;21.77;;
77581;SDS011;66726;52.388;9.986;2023-10-19T02:44:13;26.97;;;21.50;;
77581;SDS011;66726;52.388;9.986;2023-10-19T02:46:49;26.23;;;20.63;;
77581;SDS011;66726;52.388;9.986;2023-10-19T02:49:20;27.33;;;20.97;;
77581;SDS011;66726;52.388;9.986;2023-10-19T02:51:50;28.13;;;21.20;;
77581;SDS011;66726;52.388;9.986;2023-10-19T02:54:21;25.13;;;21.27;;
77581;SDS011;66726;52.388;9.986;2023-10-19T02:56:52;25.93;;;21.63;;
77581;SDS011;66726;52.388;9.986;2023-10-19T02:59:20;26.37;;;20.83;;
77581;SDS011;66726;52.388;9.986;2023-10-19T03:01:51;27.37;;;22.23;;
77581;SDS011;66726;52.388;9.986;2023-10-19T03:04:28;26.77;;;22.37;;
77581;SDS011;66726;52.388;9.986;2023-10-19T03:06:56;31.67;;;21.97;;
77581;SDS011;66726;52.388;9.986;2023-10-19T03:09:26;28.30;;;23.20;;
77581;SDS011;66726;52.388;9.986;2023-10-19T03:11:56;27.53;;;22.37;;
77581;SDS011;66726;52.388;9.986;2023-10-19T03:14:29;28.27;;;22.53;;
77581;SDS011;66726;52.388;9.986;2023-10-19T03:16:57;26.53;;;21.30;;
77581;SDS011;66726;52.388;9.986;2023-10-19T03:19:27;25.93;;;21.33;;
77581;SDS011;66726;52.388;9.986;2023-10-19T03:21:55;25.47;;;21.43;;
77581;SDS011;66726;52.388;9.986;2023-10-19T03:24:27;27.53;;;22.57;;
77581;SDS011;66726;52.388;9.986;2023-10-19T03:27:07;26.57;;;22.57;;
77581;SDS011;66726;52.388;9.986;2023-10-19T03:29:42;29.47;;;24.20;;
77581;SDS011;66726;52.388;9.986;2023-10-19T03:32:14;28.50;;;23.53;;
77581;SDS011;66726;52.388;9.986;2023-10-19T03:34:43;28.73;;;24.00;;
77581;SDS011;66726;52.388;9.986;2023-10-19T03:37:14;28.90;;;24.53;;
77581;SDS011;66726;52.388;9.986;2023-10-19T03:39:48;29.67;;;23.97;;
77581;SDS011;66726;52.388;9.986;2023-10-19T03:42:17;32.23;;;25.83;;
77581;SDS011;66726;52.388;9.986;2023-10-19T03:44:47;32.63;;;25.10;;
77581;SDS011;66726;52.388;9.986;2023-10-19T03:47:20;31.37;;;25.30;;
77581;SDS011;66726;52.388;9.986;2023-10-19T03:49:52;28.87;;;24.37;;
77581;SDS011;66726;52.388;9.986;2023-10-19T03:52:20;28.03;;;23.63;;
77581;SDS011;66726;52.388;9.986;2023-10-19T03:54:50;29.77;;;24.17;;
77581;SDS011;66726;52.388;9.986;2023-10-19T03:57:19;31.70;;;25.37;;
77581;SDS011;66726;52.388;9.986;2023-10-19T03:59:49;33.17;;;25.73;;
77581;SDS011;66726;52.388;9.986;2023-10-19T04:02:23;29.30;;;23.83;;
77581;SDS011;66726;52.388;9.986;2023-10-19T04:04:54;31.37;;;24.20;;
77581;SDS011;66726;52.388;9.986;2023-10-19T04:07:23;28.20;;;23.47;;
77581;SDS011;66726;52.388;9.986;2023-10-19T04:09:54;28.80;;;25.03;;
77581;SDS011;66726;52.388;9.986;2023-10-19T04:12:36;29.00;;;24.37;;
77581;SDS011;66726;52.388;9.986;2023-10-19T04:15:09;28.97;;;23.10;;
77581;SDS011;66726;52.388;9.986;2023-10-19T04:17:41;29.67;;;24.30;;
77581;SDS011;66726;52.388;9.986;2023-10-19T04:20:11;29.80;;;24.20;;
77581;SDS011;66726;52.388;9.986;2023-10-19T04:23:02;28.63;;;24.17;;
77581;SDS011;66726;52.388;9.986;2023-10-19T04:25:39;29.47;;;24.10;;
77581;SDS011;66726;52.388;9.986;2023-10-19T04:28:08;32.20;;;24.77;;
77581;SDS011;66726;52.388;9.986;2023-10-19T04:30:36;29.13;;;24.47;;
77581;SDS011;66726;52.388;9.986;2023-10-19T04:33:05;30.33;;;24.90;;
77581;SDS011;66726;52.388;9.986;2023-10-19T04:35:35;32.00;;;26.47;;
77581;SDS011;66726;52.388;9.986;2023-10-19T04:38:07;29.77;;;23.77;;
77581;SDS011;66726;52.388;9.986;2023-10-19T04:40:36;30.80;;;25.33;;
77581;SDS011;66726;52.388;9.986;2023-10-19T04:43:05;32.23;;;26.93;;
77581;SDS011;66726;52.388;9.986;2023-10-19T04:45:33;34.40;;;25.93;;
77581;SDS011;66726;52.388;9.986;2023-10-19T04:48:02;31.20;;;25.73;;
77581;SDS011;66726;52.388;9.986;2023-10-19T04:50:32;30.57;;;24.47;;
77581;SDS011;66726;52.388;9.986;2023-10-19T04:53:00;31.67;;;25.73;;
77581;SDS011;66726;52.388;9.986;2023-10-19T04:55:28;31.87;;;25.83;;
77581;SDS011;66726;52.388;9.986;2023-10-19T04:57:57;28.27;;;24.50;;
77581;SDS011;66726;52.388;9.986;2023-10-19T05:00:27;28.67;;;24.30;;
77581;SDS011;66726;52.388;9.986;2023-10-19T05:02:55;26.77;;;22.93;;
77581;SDS011;66726;52.388;9.986;2023-10-19T05:05:24;27.93;;;22.53;;
77581;SDS011;66726;52.388;9.986;2023-10-19T05:07:52;28.33;;;23.37;;
77581;SDS011;66726;52.388;9.986;2023-10-19T05:10:20;28.10;;;22.53;;
77581;SDS011;66726;52.388;9.986;2023-10-19T05:12:48;25.97;;;22.00;;
77581;SDS011;66726;52.388;9.986;2023-10-19T05:15:17;30.13;;;23.73;;
77581;SDS011;66726;52.388;9.986;2023-10-19T05:17:47;25.50;;;21.87;;
77581;SDS011;66726;52.388;9.986;2023-10-19T05:20:15;26.37;;;22.03;;
77581;SDS011;66726;52.388;9.986;2023-10-19T05:22:43;27.70;;;22.00;;
77581;SDS011;66726;52.388;9.986;2023-10-19T05:25:11;23.47;;;20.23;;
77581;SDS011;66726;52.388;9.986;2023-10-19T05:27:40;24.70;;;21.67;;
77581;SDS011;66726;52.388;9.986;2023-10-19T05:30:12;25.10;;;20.90;;
77581;SDS011;66726;52.388;9.986;2023-10-19T05:32:40;23.10;;;20.23;;
77581;SDS011;66726;52.388;9.986;2023-10-19T05:35:10;25.37;;;21.73;;
77581;SDS011;66726;52.388;9.986;2023-10-19T05:37:45;25.03;;;20.30;;
77581;SDS011;66726;52.388;9.986;2023-10-19T05:40:13;24.43;;;20.30;;
77581;SDS011;66726;52.388;9.986;2023-10-19T05:42:42;25.03;;;21.73;;
77581;SDS011;66726;52.388;9.986;2023-10-19T05:45:13;28.20;;;22.93;;
77581;SDS011;66726;52.388;9.986;2023-10-19T05:47:42;24.17;;;21.17;;
77581;SDS011;66726;52.388;9.986;2023-10-19T05:50:12;25.03;;;21.90;;
77581;SDS011;66726;52.388;9.986;2023-10-19T05:52:41;25.40;;;21.57;;
77581;SDS011;66726;52.388;9.986;2023-10-19T05:55:11;26.23;;;21.77;;
77581;SDS011;66726;52.388;9.986;2023-10-19T05:57:39;25.33;;;22.20;;
77581;SDS011;66726;52.388;9.986;2023-10-19T06:00:08;26.30;;;21.87;;
77581;SDS011;66726;52.388;9.986;2023-10-19T06:02:42;23.93;;;20.70;;
77581;SDS011;66726;52.388;9.986;2023-10-19T06:05:14;23.83;;;21.23;;
77581;SDS011;66726;52.388;9.986;2023-10-19T06:07:43;24.10;;;20.73;;
77581;SDS011;66726;52.388;9.986;2023-10-19T06:10:14;26.80;;;21.70;;
77581;SDS011;66726;52.388;9.986;2023-10-19T06:12:46;25.33;;;21.77;;
77581;SDS011;66726;52.388;9.986;2023-10-19T06:15:17;25.90;;;21.57;;
77581;SDS011;66726;52.388;9.986;2023-10-19T06:17:47;24.43;;;20.57;;
77581;SDS011;66726;52.388;9.986;2023-10-19T06:20:17;23.73;;;20.70;;
77581;SDS011;66726;52.388;9.986;2023-10-19T06:22:51;25.03;;;22.07;;
77581;SDS011;66726;52.388;9.986;2023-10-19T06:25:20;23.13;;;20.17;;
77581;SDS011;66726;52.388;9.986;2023-10-19T06:27:50;25.93;;;21.57;;
77581;SDS011;66726;52.388;9.986;2023-10-19T06:30:20;22.77;;;19.47;;
77581;SDS011;66726;52.388;9.986;2023-10-19T06:32:50;26.87;;;20.90;;
77581;SDS011;66726;52.388;9.986;2023-10-19T06:35:21;27.57;;;21.07;;
77581;SDS011;66726;52.388;9.986;2023-10-19T06:37:50;24.03;;;21.03;;
77581;SDS011;66726;52.388;9.986;2023-10-19T06:40:21;24.30;;;20.33;;
77581;SDS011;66726;52.388;9.986;2023-10-19T06:42:50;24.63;;;21.23;;
77581;SDS011;66726;52.388;9.986;2023-10-19T06:45:18;25.30;;;21.07;;
77581;SDS011;66726;52.388;9.986;2023-10-19T06:47:47;26.27;;;20.63;;
77581;SDS011;66726;52.388;9.986;2023-10-19T06:50:18;25.43;;;20.27;;
77581;SDS011;66726;52.388;9.986;2023-10-19T06:52:50;22.83;;;19.97;;
77581;SDS011;66726;52.388;9.986;2023-10-19T06:55:21;24.43;;;20.53;;
77581;SDS011;66726;52.388;9.986;2023-10-19T06:57:50;25.73;;;20.17;;
77581;SDS011;66726;52.388;9.986;2023-10-19T07:00:23;21.80;;;19.27;;
77581;SDS011;66726;52.388;9.986;2023-10-19T07:02:54;22.50;;;19.03;;
77581;SDS011;66726;52.388;9.986;2023-10-19T07:05:28;23.30;;;18.97;;
77581;SDS011;66726;52.388;9.986;2023-10-19T07:07:57;22.93;;;19.30;;
77581;SDS011;66726;52.388;9.986;2023-10-19T07:10:28;21.77;;;19.03;;
77581;SDS011;66726;52.388;9.986;2023-10-19T07:12:56;23.10;;;18.53;;
77581;SDS011;66726;52.388;9.986;2023-10-19T07:15:25;21.70;;;18.50;;
77581;SDS011;66726;52.388;9.986;2023-10-19T07:17:55;20.53;;;17.70;;
77581;SDS011;66726;52.388;9.986;2023-10-19T07:20:25;18.80;;;16.87;;
77581;SDS011;66726;52.388;9.986;2023-10-19T07:22:56;20.63;;;18.07;;
77581;SDS011;66726;52.388;9.986;2023-10-19T07:25:29;20.17;;;16.93;;
77581;SDS011;66726;52.388;9.986;2023-10-19T07:27:58;20.23;;;17.93;;
77581;SDS011;66726;52.388;9.986;2023-10-19T07:30:26;20.47;;;18.17;;
77581;SDS011;66726;52.388;9.986;2023-10-19T07:32:56;20.43;;;17.70;;
77581;SDS011;66726;52.388;9.986;2023-10-19T07:35:26;20.97;;;16.97;;
77581;SDS011;66726;52.388;9.986;2023-10-19T07:38:02;18.90;;;16.13;;
77581;SDS011;66726;52.388;9.986;2023-10-19T07:40:31;18.47;;;16.47;;
77581;SDS011;66726;52.388;9.986;2023-10-19T07:42:59;20.70;;;16.00;;
77581;SDS011;66726;52.388;9.986;2023-10-19T07:45:30;20.07;;;16.40;;
77581;SDS011;66726;52.388;9.986;2023-10-19T07:48:00;17.80;;;15.90;;
77581;SDS011;66726;52.388;9.986;2023-10-19T07:50:33;17.33;;;15.53;;
77581;SDS011;66726;52.388;9.986;2023-10-19T07:53:03;16.93;;;15.07;;
77581;SDS011;66726;52.388;9.986;2023-10-19T07:55:32;18.87;;;16.13;;
77581;SDS011;66726;52.388;9.986;2023-10-19T07:58:01;16.90;;;15.07;;
77581;SDS011;66726;52.388;9.986;2023-10-19T08:00:30;16.43;;;14.73;;
77581;SDS011;66726;52.388;9.986;2023-10-19T08:03:00;16.13;;;14.43;;
77581;SDS011;66726;52.388;9.986;2023-10-19T08:05:29;17.03;;;15.23;;
77581;SDS011;66726;52.388;9.986;2023-10-19T08:07:58;16.60;;;14.80;;
77581;SDS011;66726;52.388;9.986;2023-10-19T08:10:28;16.13;;;14.43;;
77581;SDS011;66726;52.388;9.986;2023-10-19T08:12:56;16.40;;;14.70;;
77581;SDS011;66726;52.388;9.986;2023-10-19T08:15:25;15.70;;;14.10;;
77581;SDS011;66726;52.388;9.986;2023-10-19T08:17:56;15.57;;;13.97;;
77581;SDS011;66726;52.388;9.986;2023-10-19T08:20:24;16.37;;;13.97;;
77581;SDS011;66726;52.388;9.986;2023-10-19T08:22:57;13.70;;;12.30;;
77581;SDS011;66726;52.388;9.986;2023-10-19T08:25:30;16.57;;;14.83;;
77581;SDS011;66726;52.388;9.986;2023-10-19T08:28:18;15.63;;;13.63;;
77581;SDS011;66726;52.388;9.986;2023-10-19T08:30:47;15.47;;;13.57;;
77581;SDS011;66726;52.388;9.986;2023-10-19T08:33:24;14.57;;;13.07;;
77581;SDS011;66726;52.388;9.986;2023-10-19T08:35:53;13.47;;;12.07;;
77581;SDS011;66726;52.388;9.986;2023-10-19T08:38:23;13.50;;;12.10;;
77581;SDS011;66726;52.388;9.986;2023-10-19T08:40:53;13.20;;;11.80;;
77581;SDS011;66726;52.388;9.986;2023-10-19T08:43:21;13.43;;;12.03;;
77581;SDS011;66726;52.388;9.986;2023-10-19T08:45:52;14.57;;;12.97;;
77581;SDS011;66726;52.388;9.986;2023-10-19T08:48:22;12.27;;;10.97;;
77581;SDS011;66726;52.388;9.986;2023-10-19T08:50:50;12.53;;;10.83;;
77581;SDS011;66726;52.388;9.986;2023-10-19T08:53:22;12.20;;;11.00;;
77581;SDS011;66726;52.388;9.986;2023-10-19T08:55:52;11.80;;;10.67;;
77581;SDS011;66726;52.388;9.986;2023-10-19T08:58:23;11.03;;;9.93;;
77581;SDS011;66726;52.388;9.986;2023-10-19T09:00:53;12.53;;;9.70;;
77581;SDS011;66726;52.388;9.986;2023-10-19T09:03:23;11.70;;;10.10;;
77581;SDS011;66726;52.388;9.986;2023-10-19T09:05:53;10.60;;;9.60;;
77581;SDS011;66726;52.388;9.986;2023-10-19T09:08:22;10.50;;;9.50;;
77581;SDS011;66726;52.388;9.986;2023-10-19T09:10:52;10.53;;;9.43;;
77581;SDS011;66726;52.388;9.986;2023-10-19T09:13:22;9.53;;;8.63;;
77581;SDS011;66726;52.388;9.986;2023-10-19T09:15:52;10.73;;;9.63;;
77581;SDS011;66726;52.388;9.986;2023-10-19T09:18:23;10.00;;;9.00;;
77581;SDS011;66726;52.388;9.986;2023-10-19T09:20:54;8.73;;;7.93;;
77581;SDS011;66726;52.388;9.986;2023-10-19T09:23:29;8.33;;;7.57;;
77581;SDS011;66726;52.388;9.986;2023-10-19T09:25:59;8.43;;;7.53;;
77581;SDS011;66726;52.388;9.986;2023-10-19T09:28:30;10.13;;;7.47;;
77581;SDS011;66726;52.388;9.986;2023-10-19T09:31:00;8.60;;;7.80;;
77581;SDS011;66726;52.388;9.986;2023-10-19T09:33:30;8.77;;;7.70;;
77581;SDS011;66726;52.388;9.986;2023-10-19T09:36:01;9.00;;;8.10;;
77581;SDS011;66726;52.388;9.986;2023-10-19T09:38:39;10.80;;;8.57;;
77581;SDS011;66726;52.388;9.986;2023-10-19T09:41:17;9.40;;;8.50;;
77581;SDS011;66726;52.388;9.986;2023-10-19T09:43:46;10.13;;;8.70;;
77581;SDS011;66726;52.388;9.986;2023-10-19T09:46:20;9.97;;;8.97;;
77581;SDS011;66726;52.388;9.986;2023-10-19T09:48:51;10.47;;;9.37;;
77581;SDS011;66726;52.388;9.986;2023-10-19T09:51:19;9.73;;;8.77;;
77581;SDS011;66726;52.388;9.986;2023-10-19T09:53:53;10.07;;;8.47;;
77581;SDS011;66726;52.388;9.986;2023-10-19T09:56:32;10.40;;;9.30;;
77581;SDS011;66726;52.388;9.986;2023-10-19T09:59:11;8.73;;;7.83;;
77581;SDS011;66726;52.388;9.986;2023-10-19T10:02:08;11.87;;;8.80;;
77581;SDS011;66726;52.388;9.986;2023-10-19T10:04:40;8.43;;;7.60;;
77581;SDS011;66726;52.388;9.986;2023-10-19T10:07:11;8.53;;;7.67;;
77581;SDS011;66726;52.388;9.986;2023-10-19T10:09:45;7.30;;;6.70;;
77581;SDS011;66726;52.388;9.986;2023-10-19T10:12:18;8.40;;;7.67;;
77581;SDS011;66726;52.388;9.986;2023-10-19T10:14:55;9.07;;;8.17;;
77581;SDS011;66726;52.388;9.986;2023-10-19T10:17:25;8.70;;;7.73;;
77581;SDS011;66726;52.388;9.986;2023-10-19T10:19:55;8.50;;;7.70;;
77581;SDS011;66726;52.388;9.986;2023-10-19T10:25:49;8.43;;;7.70;;
77581;SDS011;66726;52.388;9.986;2023-10-19T10:28:21;8.20;;;7.43;;
77581;SDS011;66726;52.388;9.986;2023-10-19T10:31:13;7.73;;;7.03;;
77581;SDS011;66726;52.388;9.986;2023-10-19T10:33:47;8.67;;;7.87;;
77581;SDS011;66726;52.388;9.986;2023-10-19T10:36:18;9.20;;;8.33;;
77581;SDS011;66726;52.388;9.986;2023-10-19T10:38:48;7.63;;;6.93;;
77581;SDS011;66726;52.388;9.986;2023-10-19T10:41:21;8.60;;;7.80;;
77581;SDS011;66726;52.388;9.986;2023-10-19T10:43:56;9.60;;;8.70;;
77581;SDS011;66726;52.388;9.986;2023-10-19T10:46:27;12.03;;;10.27;;
77581;SDS011;66726;52.388;9.986;2023-10-19T10:48:56;9.80;;;8.90;;
77581;SDS011;66726;52.388;9.986;2023-10-19T10:51:25;10.43;;;9.33;;
77581;SDS011;66726;52.388;9.986;2023-10-19T10:53:56;11.53;;;10.43;;
77581;SDS011;66726;52.388;9.986;2023-10-19T10:56:25;12.73;;;11.53;;
77581;SDS011;66726;52.388;9.986;2023-10-19T10:58:56;13.07;;;11.23;;
77581;SDS011;66726;52.388;9.986;2023-10-19T11:01:27;13.03;;;11.73;;
77581;SDS011;66726;52.388;9.986;2023-10-19T11:06:47;13.50;;;12.07;;
77581;SDS011;66726;52.388;9.986;2023-10-19T11:09:16;12.17;;;10.97;;
77581;SDS011;66726;52.388;9.986;2023-10-19T11:11:48;11.03;;;9.93;;
77581;SDS011;66726;52.388;9.986;2023-10-19T11:14:19;12.03;;;10.70;;
77581;SDS011;66726;52.388;9.986;2023-10-19T11:16:51;11.97;;;10.77;;
77581;SDS011;66726;52.388;9.986;2023-10-19T11:19:19;10.73;;;9.73;;
77581;SDS011;66726;52.388;9.986;2023-10-19T11:21:52;12.77;;;11.47;;
77581;SDS011;66726;52.388;9.986;2023-10-19T11:24:25;14.97;;;11.93;;
77581;SDS011;66726;52.388;9.986;2023-10-19T11:26:58;12.87;;;10.73;;
77581;SDS011;66726;52.388;9.986;2023-10-19T11:29:28;13.93;;;11.27;;
77581;SDS011;66726;52.388;9.986;2023-10-19T11:31:56;12.80;;;11.50;;
77581;SDS011;66726;52.388;9.986;2023-10-19T11:34:26;12.63;;;11.07;;
77581;SDS011;66726;52.388;9.986;2023-10-19T11:36:56;12.57;;;11.23;;
77581;SDS011;66726;52.388;9.986;2023-10-19T11:39:26;15.60;;;13.77;;
77581;SDS011;66726;52.388;9.986;2023-10-19T11:41:55;12.37;;;10.97;;
77581;SDS011;66726;52.388;9.986;2023-10-19T11:44:23;14.23;;;12.10;;
77581;SDS011;66726;52.388;9.986;2023-10-19T11:46:53;14.43;;;12.33;;
77581;SDS011;66726;52.388;9.986;2023-10-19T11:49:21;13.70;;;12.20;;
77581;SDS011;66726;52.388;9.986;2023-10-19T11:51:52;14.97;;;12.80;;
77581;SDS011;66726;52.388;9.986;2023-10-19T11:54:20;13.90;;;12.50;;
77581;SDS011;66726;52.388;9.986;2023-10-19T11:56:48;16.27;;;13.13;;
77581;SDS011;66726;52.388;9.986;2023-10-19T11:59:17;13.40;;;11.87;;
77581;SDS011;66726;52.388;9.986;2023-10-19T12:01:45;15.27;;;12.93;;
77581;SDS011;66726;52.388;9.986;2023-10-19T12:04:15;14.37;;;12.90;;
77581;SDS011;66726;52.388;9.986;2023-10-19T12:06:43;17.33;;;12.70;;
77581;SDS011;66726;52.388;9.986;2023-10-19T12:09:12;15.00;;;12.83;;
77581;SDS011;66726;52.388;9.986;2023-10-19T12:11:42;14.50;;;13.00;;
77581;SDS011;66726;52.388;9.986;2023-10-19T12:14:14;18.27;;;14.87;;
77581;SDS011;66726;52.388;9.986;2023-10-19T12:16:42;17.50;;;15.20;;
77581;SDS011;66726;52.388;9.986;2023-10-19T12:19:12;16.33;;;14.07;;
77581;SDS011;66726;52.388;9.986;2023-10-19T12:21:42;17.10;;;14.13;;
77581;SDS011;66726;52.388;9.986;2023-10-19T12:24:11;16.23;;;14.00;;
77581;SDS011;66726;52.388;9.986;2023-10-19T12:26:39;16.93;;;14.03;;
77581;SDS011;66726;52.388;9.986;2023-10-19T12:29:08;17.13;;;13.40;;
77581;SDS011;66726;52.388;9.986;2023-10-19T12:31:37;18.60;;;14.33;;
77581;SDS011;66726;52.388;9.986;2023-10-19T12:34:07;16.80;;;14.43;;
77581;SDS011;66726;52.388;9.986;2023-10-19T12:36:38;18.30;;;14.60;;
77581;SDS011;66726;52.388;9.986;2023-10-19T12:39:09;18.07;;;14.47;;
77581;SDS011;66726;52.388;9.986;2023-10-19T12:41:57;16.47;;;14.20;;
77581;SDS011;66726;52.388;9.986;2023-10-19T12:44:27;17.67;;;14.20;;
77581;SDS011;66726;52.388;9.986;2023-10-19T12:46:56;15.67;;;14.07;;
77581;SDS011;66726;52.388;9.986;2023-10-19T12:49:25;16.57;;;14.90;;
77581;SDS011;66726;52.388;9.986;2023-10-19T12:51:53;15.93;;;14.03;;
77581;SDS011;66726;52.388;9.986;2023-10-19T12:54:23;16.53;;;14.50;;
77581;SDS011;66726;52.388;9.986;2023-10-19T12:56:52;15.93;;;13.40;;
77581;SDS011;66726;52.388;9.986;2023-10-19T12:59:21;17.53;;;14.70;;
77581;SDS011;66726;52.388;9.986;2023-10-19T13:01:49;15.90;;;14.20;;
77581;SDS011;66726;52.388;9.986;2023-10-19T13:04:21;18.00;;;14.37;;
77581;SDS011;66726;52.388;9.986;2023-10-19T13:06:50;14.93;;;12.97;;
77581;SDS011;66726;52.388;9.986;2023-10-19T13:09:25;19.17;;;15.27;;
77581;SDS011;66726;52.388;9.986;2023-10-19T13:11:59;18.93;;;14.37;;
77581;SDS011;66726;52.388;9.986;2023-10-19T13:14:27;16.97;;;14.60;;
77581;SDS011;66726;52.388;9.986;2023-10-19T13:16:56;18.77;;;15.37;;
77581;SDS011;66726;52.388;9.986;2023-10-19T13:19:25;20.03;;;15.40;;
77581;SDS011;66726;52.388;9.986;2023-10-19T13:21:53;20.07;;;17.10;;
77581;SDS011;66726;52.388;9.986;2023-10-19T13:24:26;17.07;;;15.10;;
77581;SDS011;66726;52.388;9.986;2023-10-19T13:26:54;18.70;;;15.27;;
77581;SDS011;66726;52.388;9.986;2023-10-19T13:29:22;19.03;;;16.30;;
77581;SDS011;66726;52.388;9.986;2023-10-19T13:31:52;18.70;;;16.63;;
77581;SDS011;66726;52.388;9.986;2023-10-19T13:34:22;22.50;;;16.53;;
77581;SDS011;66726;52.388;9.986;2023-10-19T13:36:50;21.33;;;15.90;;
77581;SDS011;66726;52.388;9.986;2023-10-19T13:39:18;21.87;;;16.73;;
77581;SDS011;66726;52.388;9.986;2023-10-19T13:41:48;20.93;;;17.73;;
77581;SDS011;66726;52.388;9.986;2023-10-19T13:44:16;19.43;;;16.60;;
77581;SDS011;66726;52.388;9.986;2023-10-19T13:46:46;22.83;;;18.40;;
77581;SDS011;66726;52.388;9.986;2023-10-19T13:49:17;21.77;;;19.00;;
77581;SDS011;66726;52.388;9.986;2023-10-19T13:51:45;28.23;;;20.17;;
77581;SDS011;66726;52.388;9.986;2023-10-19T13:54:13;25.80;;;19.83;;
77581;SDS011;66726;52.388;9.986;2023-10-19T13:56:42;24.50;;;19.50;;
77581;SDS011;66726;52.388;9.986;2023-10-19T13:59:11;26.37;;;19.80;;
77581;SDS011;66726;52.388;9.986;2023-10-19T14:01:42;26.40;;;21.10;;
77581;SDS011;66726;52.388;9.986;2023-10-19T14:04:11;27.47;;;20.87;;
77581;SDS011;66726;52.388;9.986;2023-10-19T14:06:40;29.17;;;22.73;;
77581;SDS011;66726;52.388;9.986;2023-10-19T14:09:09;28.37;;;20.73;;
77581;SDS011;66726;52.388;9.986;2023-10-19T14:11:39;32.30;;;23.53;;
77581;SDS011;66726;52.388;9.986;2023-10-19T14:14:07;29.90;;;21.83;;
77581;SDS011;66726;52.388;9.986;2023-10-19T14:16:38;29.63;;;22.63;;
77581;SDS011;66726;52.388;9.986;2023-10-19T14:19:07;30.33;;;23.80;;
77581;SDS011;66726;52.388;9.986;2023-10-19T14:21:35;32.17;;;24.67;;
77581;SDS011;66726;52.388;9.986;2023-10-19T14:24:06;31.40;;;25.03;;
77581;SDS011;66726;52.388;9.986;2023-10-19T14:26:35;33.47;;;25.63;;
77581;SDS011;66726;52.388;9.986;2023-10-19T14:29:04;30.97;;;24.07;;
77581;SDS011;66726;52.388;9.986;2023-10-19T14:31:33;36.93;;;25.87;;
77581;SDS011;66726;52.388;9.986;2023-10-19T14:34:02;38.40;;;26.37;;
77581;SDS011;66726;52.388;9.986;2023-10-19T14:36:31;33.23;;;24.57;;
77581;SDS011;66726;52.388;9.986;2023-10-19T14:38:59;36.07;;;25.30;;
77581;SDS011;66726;52.388;9.986;2023-10-19T14:41:27;35.83;;;26.00;;
77581;SDS011;66726;52.388;9.986;2023-10-19T14:43:56;33.13;;;24.67;;
77581;SDS011;66726;52.388;9.986;2023-10-19T14:46:25;32.80;;;25.00;;
77581;SDS011;66726;52.388;9.986;2023-10-19T14:48:55;37.13;;;26.70;;
77581;SDS011;66726;52.388;9.986;2023-10-19T14:51:25;36.37;;;26.97;;